sensor_id;sensor_type;location;lat;lon;timestamp;pressure;altitude;pressure_sealevel;temperature;humidity
29371;BME280;16357;52.188;7.838;2023-08-07T00:01:43;100202.56;;;17.63;68.16
29371;BME280;16357;52.188;7.838;2023-08-07T00:04:10;100199.84;;;17.63;68.07
29371;BME280;16357;52.188;7.838;2023-08-07T00:06:36;100199.84;;;17.63;68.12
29371;BME280;16357;52.188;7.838;2023-08-07T00:09:03;100201.75;;;17.62;68.06
29371;BME280;16357;52.188;7.838;2023-08-07T00:11:29;100197.97;;;17.63;68.05
29371;BME280;16357;52.188;7.838;2023-08-07T00:13:57;100198.19;;;17.62;68.10
29371;BME280;16357;52.188;7.838;2023-08-07T00:16:24;100196.31;;;17.62;68.49
29371;BME280;16357;52.188;7.838;2023-08-07T00:18:50;100196.31;;;17.62;68.54
29371;BME280;16357;52.188;7.838;2023-08-07T00:21:18;100199.03;;;17.62;68.38
29371;BME280;16357;52.188;7.838;2023-08-07T00:23:45;100197.13;;;17.63;68.53
29371;BME280;16357;52.188;7.838;2023-08-07T00:26:11;100195.50;;;17.62;68.14
29371;BME280;16357;52.188;7.838;2023-08-07T00:28:38;100194.63;;;17.61;68.21
29371;BME280;16357;52.188;7.838;2023-08-07T00:31:04;100201.75;;;17.62;68.33
29371;BME280;16357;52.188;7.838;2023-08-07T00:33:31;100192.78;;;17.62;68.33
29371;BME280;16357;52.188;7.838;2023-08-07T00:35:57;100190.88;;;17.62;68.11
29371;BME280;16357;52.188;7.838;2023-08-07T00:38:23;100190.06;;;17.62;68.35
29371;BME280;16357;52.188;7.838;2023-08-07T00:40:50;100187.34;;;17.62;68.73
29371;BME280;16357;52.188;7.838;2023-08-07T00:43:16;100189.81;;;17.63;68.65
29371;BME280;16357;52.188;7.838;2023-08-07T00:45:45;100195.06;;;17.65;68.31
29371;BME280;16357;52.188;7.838;2023-08-07T00:48:12;100192.34;;;17.65;68.57
29371;BME280;16357;52.188;7.838;2023-08-07T00:50:42;100197.53;;;17.66;68.54
29371;BME280;16357;52.188;7.838;2023-08-07T00:53:13;100192.09;;;17.66;68.38
29371;BME280;16357;52.188;7.838;2023-08-07T00:55:40;100198.38;;;17.67;68.49
29371;BME280;16357;52.188;7.838;2023-08-07T00:58:07;100197.53;;;17.66;68.50
29371;BME280;16357;52.188;7.838;2023-08-07T01:00:34;100199.41;;;17.66;68.54
29371;BME280;16357;52.188;7.838;2023-08-07T01:03:01;100201.09;;;17.67;68.49
29371;BME280;16357;52.188;7.838;2023-08-07T01:05:27;100202.13;;;17.66;68.58
29371;BME280;16357;52.188;7.838;2023-08-07T01:07:54;100199.41;;;17.66;68.55
29371;BME280;16357;52.188;7.838;2023-08-07T01:10:32;100199.22;;;17.67;68.53
29371;BME280;16357;52.188;7.838;2023-08-07T01:13:19;100201.69;;;17.69;68.34
29371;BME280;16357;52.188;7.838;2023-08-07T01:15:52;100197.31;;;17.68;68.52
29371;BME280;16357;52.188;7.838;2023-08-07T01:18:21;100200.03;;;17.68;68.37
29371;BME280;16357;52.188;7.838;2023-08-07T01:20:48;100193.78;;;17.67;68.57
29371;BME280;16357;52.188;7.838;2023-08-07T01:23:14;100198.38;;;17.67;68.54
29371;BME280;16357;52.188;7.838;2023-08-07T01:25:41;100194.00;;;17.66;68.49
29371;BME280;16357;52.188;7.838;2023-08-07T01:28:17;100199.22;;;17.67;68.52
29371;BME280;16357;52.188;7.838;2023-08-07T01:30:48;100199.22;;;17.67;68.66
29371;BME280;16357;52.188;7.838;2023-08-07T01:35:53;100194.00;;;17.66;68.49
29371;BME280;16357;52.188;7.838;2023-08-07T01:38:24;100191.28;;;17.66;68.77
29371;BME280;16357;52.188;7.838;2023-08-07T01:40:52;100200.47;;;17.65;68.89
29371;BME280;16357;52.188;7.838;2023-08-07T01:43:19;100196.06;;;17.64;68.75
29371;BME280;16357;52.188;7.838;2023-08-07T01:45:46;100205.06;;;17.64;69.28
29371;BME280;16357;52.188;7.838;2023-08-07T01:48:13;100216.75;;;17.65;69.00
29371;BME280;16357;52.188;7.838;2023-08-07T01:50:39;100204.84;;;17.66;68.90
29371;BME280;16357;52.188;7.838;2023-08-07T01:53:06;100198.38;;;17.67;68.83
29371;BME280;16357;52.188;7.838;2023-08-07T01:55:32;100195.69;;;17.67;68.63
29371;BME280;16357;52.188;7.838;2023-08-07T01:57:59;100191.06;;;17.67;68.86
29371;BME280;16357;52.188;7.838;2023-08-07T02:00:25;100183.75;;;17.68;68.83
29371;BME280;16357;52.188;7.838;2023-08-07T02:02:51;100192.97;;;17.67;68.94
29371;BME280;16357;52.188;7.838;2023-08-07T02:05:18;100191.91;;;17.68;68.81
29371;BME280;16357;52.188;7.838;2023-08-07T02:07:44;100186.47;;;17.68;68.82
29371;BME280;16357;52.188;7.838;2023-08-07T02:10:11;100192.97;;;17.67;69.02
29371;BME280;16357;52.188;7.838;2023-08-07T02:12:37;100194.63;;;17.68;69.08
29371;BME280;16357;52.188;7.838;2023-08-07T02:15:04;100209.25;;;17.67;69.24
29371;BME280;16357;52.188;7.838;2023-08-07T02:17:31;100192.09;;;17.66;69.16
29371;BME280;16357;52.188;7.838;2023-08-07T02:19:57;100190.84;;;17.69;69.40
29371;BME280;16357;52.188;7.838;2023-08-07T02:22:24;100194.41;;;17.69;69.19
29371;BME280;16357;52.188;7.838;2023-08-07T02:24:51;100199.84;;;17.69;69.12
29371;BME280;16357;52.188;7.838;2023-08-07T02:27:17;100206.69;;;17.72;69.25
29371;BME280;16357;52.188;7.838;2023-08-07T02:29:44;100207.75;;;17.71;69.06
29371;BME280;16357;52.188;7.838;2023-08-07T02:32:10;100206.69;;;17.72;69.28
29371;BME280;16357;52.188;7.838;2023-08-07T02:34:37;100208.81;;;17.70;69.20
29371;BME280;16357;52.188;7.838;2023-08-07T02:37:03;100202.31;;;17.71;69.00
29371;BME280;16357;52.188;7.838;2023-08-07T02:39:30;100199.59;;;17.71;68.71
29371;BME280;16357;52.188;7.838;2023-08-07T02:41:57;100201.69;;;17.69;69.10
29371;BME280;16357;52.188;7.838;2023-08-07T02:44:23;100206.28;;;17.68;69.02
29371;BME280;16357;52.188;7.838;2023-08-07T02:46:50;100205.47;;;17.68;69.26
29371;BME280;16357;52.188;7.838;2023-08-07T02:49:16;100210.06;;;17.67;69.00
29371;BME280;16357;52.188;7.838;2023-08-07T02:51:43;100214.66;;;17.67;68.89
29371;BME280;16357;52.188;7.838;2023-08-07T02:54:09;100218.19;;;17.67;69.02
29371;BME280;16357;52.188;7.838;2023-08-07T02:56:35;100218.41;;;17.66;69.00
29371;BME280;16357;52.188;7.838;2023-08-07T02:59:02;100206.72;;;17.65;68.91
29371;BME280;16357;52.188;7.838;2023-08-07T03:01:28;100201.50;;;17.64;68.79
29371;BME280;16357;52.188;7.838;2023-08-07T03:03:55;100204.22;;;17.64;68.83
29371;BME280;16357;52.188;7.838;2023-08-07T03:06:21;100202.56;;;17.63;68.85
29371;BME280;16357;52.188;7.838;2023-08-07T03:08:48;100202.56;;;17.63;68.82
29371;BME280;16357;52.188;7.838;2023-08-07T03:11:14;100204.66;;;17.61;69.02
29371;BME280;16357;52.188;7.838;2023-08-07T03:13:41;100203.00;;;17.60;68.96
29371;BME280;16357;52.188;7.838;2023-08-07T03:16:08;100201.31;;;17.59;69.03
29371;BME280;16357;52.188;7.838;2023-08-07T03:18:35;100206.16;;;17.57;69.24
29371;BME280;16357;52.188;7.838;2023-08-07T03:21:02;100206.34;;;17.55;69.43
29371;BME280;16357;52.188;7.838;2023-08-07T03:23:28;100208.25;;;17.54;69.39
29371;BME280;16357;52.188;7.838;2023-08-07T03:26:05;100202.81;;;17.54;69.31
29371;BME280;16357;52.188;7.838;2023-08-07T03:28:35;100213.03;;;17.52;69.36
29371;BME280;16357;52.188;7.838;2023-08-07T03:31:02;100208.66;;;17.51;69.62
29371;BME280;16357;52.188;7.838;2023-08-07T03:33:29;100198.84;;;17.50;69.45
29371;BME280;16357;52.188;7.838;2023-08-07T03:35:56;100201.56;;;17.50;69.73
29371;BME280;16357;52.188;7.838;2023-08-07T03:38:22;100192.84;;;17.48;69.78
29371;BME280;16357;52.188;7.838;2023-08-07T03:40:49;100209.94;;;17.49;69.79
29371;BME280;16357;52.188;7.838;2023-08-07T03:43:16;100214.53;;;17.48;69.69
29371;BME280;16357;52.188;7.838;2023-08-07T03:45:42;100211.81;;;17.48;69.68
29371;BME280;16357;52.188;7.838;2023-08-07T03:48:08;100217.25;;;17.48;69.52
29371;BME280;16357;52.188;7.838;2023-08-07T03:50:35;100222.66;;;17.48;69.87
29371;BME280;16357;52.188;7.838;2023-08-07T03:53:04;100214.53;;;17.48;69.61
29371;BME280;16357;52.188;7.838;2023-08-07T03:55:34;100213.47;;;17.49;69.76
29371;BME280;16357;52.188;7.838;2023-08-07T03:58:01;100210.75;;;17.49;69.87
29371;BME280;16357;52.188;7.838;2023-08-07T04:00:27;100213.47;;;17.49;69.73
29371;BME280;16357;52.188;7.838;2023-08-07T04:02:54;100217.00;;;17.50;69.70
29371;BME280;16357;52.188;7.838;2023-08-07T04:05:20;100208.06;;;17.49;69.87
29371;BME280;16357;52.188;7.838;2023-08-07T04:07:47;100220.56;;;17.50;69.71
29371;BME280;16357;52.188;7.838;2023-08-07T04:10:13;100215.13;;;17.50;69.48
29371;BME280;16357;52.188;7.838;2023-08-07T04:12:40;100208.06;;;17.49;69.53
29371;BME280;16357;52.188;7.838;2023-08-07T04:15:07;100212.41;;;17.50;69.65
29371;BME280;16357;52.188;7.838;2023-08-07T04:17:34;100207.84;;;17.51;69.55
29371;BME280;16357;52.188;7.838;2023-08-07T04:20:00;100203.44;;;17.50;69.25
29371;BME280;16357;52.188;7.838;2023-08-07T04:22:27;100207.22;;;17.49;69.34
29371;BME280;16357;52.188;7.838;2023-08-07T04:24:53;100204.50;;;17.49;69.22
29371;BME280;16357;52.188;7.838;2023-08-07T04:27:19;100217.25;;;17.48;69.40
29371;BME280;16357;52.188;7.838;2023-08-07T04:29:46;100222.66;;;17.48;69.33
29371;BME280;16357;52.188;7.838;2023-08-07T04:32:12;100223.69;;;17.47;69.20
29371;BME280;16357;52.188;7.838;2023-08-07T04:34:39;100223.69;;;17.47;69.19
29371;BME280;16357;52.188;7.838;2023-08-07T04:37:05;100230.81;;;17.48;69.14
29371;BME280;16357;52.188;7.838;2023-08-07T04:39:32;100222.66;;;17.48;69.31
29371;BME280;16357;52.188;7.838;2023-08-07T04:41:59;100225.38;;;17.48;69.00
29371;BME280;16357;52.188;7.838;2023-08-07T04:44:25;100227.03;;;17.49;69.16
29371;BME280;16357;52.188;7.838;2023-08-07T04:46:52;100225.16;;;17.50;68.84
29371;BME280;16357;52.188;7.838;2023-08-07T04:49:19;100238.72;;;17.50;68.69
29371;BME280;16357;52.188;7.838;2023-08-07T04:51:45;100242.25;;;17.50;68.61
29371;BME280;16357;52.188;7.838;2023-08-07T04:54:12;100243.09;;;17.51;68.42
29371;BME280;16357;52.188;7.838;2023-08-07T04:56:38;100240.41;;;17.51;68.74
29371;BME280;16357;52.188;7.838;2023-08-07T04:59:04;100238.50;;;17.51;68.54
29371;BME280;16357;52.188;7.838;2023-08-07T05:01:31;100237.44;;;17.52;68.67
29371;BME280;16357;52.188;7.838;2023-08-07T05:03:57;100233.91;;;17.52;68.77
29371;BME280;16357;52.188;7.838;2023-08-07T05:06:25;100240.16;;;17.52;68.47
29371;BME280;16357;52.188;7.838;2023-08-07T05:08:52;100247.25;;;17.53;68.50
29371;BME280;16357;52.188;7.838;2023-08-07T05:11:18;100251.63;;;17.54;68.58
29371;BME280;16357;52.188;7.838;2023-08-07T05:13:46;100259.53;;;17.56;68.32
29371;BME280;16357;52.188;7.838;2023-08-07T05:16:13;100257.69;;;17.57;68.44
29371;BME280;16357;52.188;7.838;2023-08-07T05:18:39;100265.59;;;17.58;68.42
29371;BME280;16357;52.188;7.838;2023-08-07T05:21:06;100251.00;;;17.59;68.60
29371;BME280;16357;52.188;7.838;2023-08-07T05:23:35;100263.50;;;17.60;68.45
29371;BME280;16357;52.188;7.838;2023-08-07T05:26:01;100263.91;;;17.64;68.42
29371;BME280;16357;52.188;7.838;2023-08-07T05:28:28;100257.66;;;17.63;68.60
29371;BME280;16357;52.188;7.838;2023-08-07T05:30:54;100260.97;;;17.65;68.23
29371;BME280;16357;52.188;7.838;2023-08-07T05:33:21;100266.81;;;17.69;68.57
29371;BME280;16357;52.188;7.838;2023-08-07T05:35:47;100260.94;;;17.72;68.11
29371;BME280;16357;52.188;7.838;2023-08-07T05:38:14;100265.97;;;17.75;67.84
29371;BME280;16357;52.188;7.838;2023-08-07T05:40:40;100266.56;;;17.77;68.54
29371;BME280;16357;52.188;7.838;2023-08-07T05:43:07;100262.41;;;17.81;68.12
29371;BME280;16357;52.188;7.838;2023-08-07T05:45:34;100262.19;;;17.83;68.03
29371;BME280;16357;52.188;7.838;2023-08-07T05:48:01;100267.19;;;17.86;68.18
29371;BME280;16357;52.188;7.838;2023-08-07T05:50:27;100258.38;;;17.90;67.93
29371;BME280;16357;52.188;7.838;2023-08-07T05:52:54;100269.44;;;17.95;68.06
29371;BME280;16357;52.188;7.838;2023-08-07T05:55:20;100258.16;;;17.98;67.56
29371;BME280;16357;52.188;7.838;2023-08-07T05:57:47;100265.44;;;18.05;67.36
29371;BME280;16357;52.188;7.838;2023-08-07T06:00:15;100258.50;;;18.09;67.29
29371;BME280;16357;52.188;7.838;2023-08-07T06:02:44;100265.16;;;18.13;66.91
29371;BME280;16357;52.188;7.838;2023-08-07T06:05:11;100273.94;;;18.15;67.12
29371;BME280;16357;52.188;7.838;2023-08-07T06:07:39;100278.31;;;18.16;67.09
29371;BME280;16357;52.188;7.838;2023-08-07T06:10:06;100269.13;;;18.17;66.79
29371;BME280;16357;52.188;7.838;2023-08-07T06:12:33;100281.44;;;18.19;67.22
29371;BME280;16357;52.188;7.838;2023-08-07T06:14:59;100274.13;;;18.20;67.04
29371;BME280;16357;52.188;7.838;2023-08-07T06:17:26;100281.19;;;18.21;67.02
29371;BME280;16357;52.188;7.838;2023-08-07T06:19:52;100277.44;;;18.22;67.29
29371;BME280;16357;52.188;7.838;2023-08-07T06:22:19;100288.06;;;18.24;67.08
29371;BME280;16357;52.188;7.838;2023-08-07T06:24:45;100290.59;;;18.25;67.31
29371;BME280;16357;52.188;7.838;2023-08-07T06:27:12;100292.25;;;18.26;67.11
29371;BME280;16357;52.188;7.838;2023-08-07T06:29:38;100297.22;;;18.29;67.23
29371;BME280;16357;52.188;7.838;2023-08-07T06:32:05;100294.94;;;18.33;66.98
29371;BME280;16357;52.188;7.838;2023-08-07T06:34:32;100295.31;;;18.36;66.94
29371;BME280;16357;52.188;7.838;2023-08-07T06:36:58;100301.38;;;18.38;67.38
29371;BME280;16357;52.188;7.838;2023-08-07T06:39:25;100302.81;;;18.41;66.32
29371;BME280;16357;52.188;7.838;2023-08-07T06:41:51;100300.69;;;18.43;66.81
29371;BME280;16357;52.188;7.838;2023-08-07T06:44:18;100308.63;;;18.45;66.57
29371;BME280;16357;52.188;7.838;2023-08-07T06:46:44;100298.38;;;18.47;67.05
29371;BME280;16357;52.188;7.838;2023-08-07T06:49:10;100312.59;;;18.49;67.17
29371;BME280;16357;52.188;7.838;2023-08-07T06:51:37;100305.66;;;18.53;66.91
29371;BME280;16357;52.188;7.838;2023-08-07T06:54:03;100303.94;;;18.58;66.43
29371;BME280;16357;52.188;7.838;2023-08-07T06:56:30;100306.00;;;18.63;66.14
29371;BME280;16357;52.188;7.838;2023-08-07T06:58:56;100308.28;;;18.66;66.54
29371;BME280;16357;52.188;7.838;2023-08-07T07:01:23;100317.66;;;18.70;66.12
29371;BME280;16357;52.188;7.838;2023-08-07T07:03:49;100322.84;;;18.72;65.70
29371;BME280;16357;52.188;7.838;2023-08-07T07:06:19;100327.25;;;18.73;65.91
29371;BME280;16357;52.188;7.838;2023-08-07T07:08:47;100326.84;;;18.76;66.45
29371;BME280;16357;52.188;7.838;2023-08-07T07:11:13;100325.56;;;18.78;66.30
29371;BME280;16357;52.188;7.838;2023-08-07T07:13:40;100334.09;;;18.82;65.82
29371;BME280;16357;52.188;7.838;2023-08-07T07:16:07;100328.00;;;18.86;66.27
29371;BME280;16357;52.188;7.838;2023-08-07T07:18:34;100327.97;;;18.93;66.23
29371;BME280;16357;52.188;7.838;2023-08-07T07:21:01;100324.56;;;18.98;65.32
29371;BME280;16357;52.188;7.838;2023-08-07T07:23:27;100329.13;;;19.04;65.41
29371;BME280;16357;52.188;7.838;2023-08-07T07:25:54;100334.75;;;19.09;65.53
29371;BME280;16357;52.188;7.838;2023-08-07T07:28:21;100330.50;;;19.13;65.49
29371;BME280;16357;52.188;7.838;2023-08-07T07:30:48;100334.00;;;19.20;65.17
29371;BME280;16357;52.188;7.838;2023-08-07T07:33:16;100339.38;;;19.27;64.72
29371;BME280;16357;52.188;7.838;2023-08-07T07:35:42;100344.97;;;19.32;64.41
29371;BME280;16357;52.188;7.838;2023-08-07T07:38:09;100344.09;;;19.38;64.29
29371;BME280;16357;52.188;7.838;2023-08-07T07:40:36;100350.72;;;19.42;64.23
29371;BME280;16357;52.188;7.838;2023-08-07T07:43:03;100341.91;;;19.47;64.60
29371;BME280;16357;52.188;7.838;2023-08-07T07:45:30;100352.94;;;19.52;64.30
29371;BME280;16357;52.188;7.838;2023-08-07T07:47:56;100351.22;;;19.58;63.96
29371;BME280;16357;52.188;7.838;2023-08-07T07:50:23;100351.16;;;19.64;63.80
29371;BME280;16357;52.188;7.838;2023-08-07T07:52:49;100353.59;;;19.72;64.05
29371;BME280;16357;52.188;7.838;2023-08-07T07:55:16;100354.34;;;19.80;63.13
29371;BME280;16357;52.188;7.838;2023-08-07T07:57:42;100366.00;;;19.87;62.94
29371;BME280;16357;52.188;7.838;2023-08-07T08:00:09;100357.97;;;19.92;62.44
29371;BME280;16357;52.188;7.838;2023-08-07T08:02:36;100367.97;;;19.98;62.48
29371;BME280;16357;52.188;7.838;2023-08-07T08:05:05;100372.13;;;20.01;60.50
29371;BME280;16357;52.188;7.838;2023-08-07T08:07:33;100365.03;;;20.00;59.21
29371;BME280;16357;52.188;7.838;2023-08-07T08:10:00;100369.25;;;19.95;59.75
29371;BME280;16357;52.188;7.838;2023-08-07T08:12:27;100375.41;;;19.91;60.37
29371;BME280;16357;52.188;7.838;2023-08-07T08:14:53;100378.78;;;19.86;60.25
29371;BME280;16357;52.188;7.838;2023-08-07T08:17:23;100380.69;;;19.86;61.29
29371;BME280;16357;52.188;7.838;2023-08-07T08:19:49;100390.28;;;19.88;61.44
29371;BME280;16357;52.188;7.838;2023-08-07T08:22:18;100406.78;;;19.93;60.97
29371;BME280;16357;52.188;7.838;2023-08-07T08:24:45;100387.25;;;19.97;60.67
29371;BME280;16357;52.188;7.838;2023-08-07T08:27:11;100409.41;;;20.00;60.29
29371;BME280;16357;52.188;7.838;2023-08-07T08:29:38;100407.09;;;20.04;59.91
29371;BME280;16357;52.188;7.838;2023-08-07T08:32:04;100410.19;;;20.07;59.88
29371;BME280;16357;52.188;7.838;2023-08-07T08:34:31;100407.59;;;20.12;60.04
29371;BME280;16357;52.188;7.838;2023-08-07T08:36:57;100401.25;;;20.18;60.27
29371;BME280;16357;52.188;7.838;2023-08-07T08:39:24;100412.91;;;20.26;59.80
29371;BME280;16357;52.188;7.838;2023-08-07T08:41:50;100448.00;;;20.34;61.61
29371;BME280;16357;52.188;7.838;2023-08-07T08:44:19;100458.91;;;20.34;62.36
29371;BME280;16357;52.188;7.838;2023-08-07T08:46:46;100438.34;;;20.20;63.01
29371;BME280;16357;52.188;7.838;2023-08-07T08:49:16;100441.31;;;19.93;62.60
29371;BME280;16357;52.188;7.838;2023-08-07T08:51:50;100445.34;;;19.65;62.98
29371;BME280;16357;52.188;7.838;2023-08-07T08:54:17;100436.78;;;19.37;64.25
29371;BME280;16357;52.188;7.838;2023-08-07T08:56:44;100442.00;;;19.13;64.22
29371;BME280;16357;52.188;7.838;2023-08-07T08:59:11;100452.41;;;18.91;64.29
29371;BME280;16357;52.188;7.838;2023-08-07T09:01:41;100457.47;;;18.74;64.91
29371;BME280;16357;52.188;7.838;2023-08-07T09:04:07;100454.22;;;18.59;65.44
29371;BME280;16357;52.188;7.838;2023-08-07T09:06:36;100444.84;;;18.48;66.14
29371;BME280;16357;52.188;7.838;2023-08-07T09:09:09;100452.78;;;18.43;66.63
29371;BME280;16357;52.188;7.838;2023-08-07T09:11:39;100464.09;;;18.40;66.81
29371;BME280;16357;52.188;7.838;2023-08-07T09:14:07;100453.22;;;18.40;66.36
29371;BME280;16357;52.188;7.838;2023-08-07T09:16:35;100460.13;;;18.42;66.55
29371;BME280;16357;52.188;7.838;2023-08-07T09:19:02;100456.97;;;18.46;66.95
29371;BME280;16357;52.188;7.838;2023-08-07T09:21:31;100474.91;;;18.53;67.09
29371;BME280;16357;52.188;7.838;2023-08-07T09:23:57;100456.50;;;18.62;67.14
29371;BME280;16357;52.188;7.838;2023-08-07T09:26:25;100467.75;;;18.72;66.40
29371;BME280;16357;52.188;7.838;2023-08-07T09:28:52;100466.44;;;18.81;66.07
29371;BME280;16357;52.188;7.838;2023-08-07T09:31:21;100489.00;;;18.89;64.81
29371;BME280;16357;52.188;7.838;2023-08-07T09:33:48;100477.25;;;18.95;64.02
29371;BME280;16357;52.188;7.838;2023-08-07T09:36:15;100459.22;;;19.00;63.98
29371;BME280;16357;52.188;7.838;2023-08-07T09:38:41;100467.97;;;19.09;65.15
29371;BME280;16357;52.188;7.838;2023-08-07T09:41:08;100470.81;;;19.21;64.72
29371;BME280;16357;52.188;7.838;2023-08-07T09:43:35;100471.53;;;19.35;62.48
29371;BME280;16357;52.188;7.838;2023-08-07T09:46:06;100505.34;;;19.45;62.47
29371;BME280;16357;52.188;7.838;2023-08-07T09:48:41;100522.75;;;19.44;60.33
29371;BME280;16357;52.188;7.838;2023-08-07T09:51:07;100518.28;;;19.25;58.38
29371;BME280;16357;52.188;7.838;2023-08-07T09:53:34;100521.81;;;18.94;59.12
29371;BME280;16357;52.188;7.838;2023-08-07T09:56:01;100522.34;;;18.57;59.75
29371;BME280;16357;52.188;7.838;2023-08-07T09:58:28;100516.41;;;18.22;60.72
29371;BME280;16357;52.188;7.838;2023-08-07T10:00:55;100533.94;;;17.93;61.49
29371;BME280;16357;52.188;7.838;2023-08-07T10:03:26;100529.97;;;17.69;63.37
29371;BME280;16357;52.188;7.838;2023-08-07T10:05:53;100542.28;;;17.51;63.62
29371;BME280;16357;52.188;7.838;2023-08-07T10:08:21;100528.69;;;17.38;64.12
29371;BME280;16357;52.188;7.838;2023-08-07T10:10:58;100534.31;;;17.30;64.81
29371;BME280;16357;52.188;7.838;2023-08-07T10:13:25;100532.22;;;17.25;66.04
29371;BME280;16357;52.188;7.838;2023-08-07T10:16:04;100532.22;;;17.25;66.07
29371;BME280;16357;52.188;7.838;2023-08-07T10:18:34;100521.78;;;17.29;66.38
29371;BME280;16357;52.188;7.838;2023-08-07T10:21:05;100529.31;;;17.40;66.87
29371;BME280;16357;52.188;7.838;2023-08-07T10:23:35;100520.16;;;17.54;66.73
29371;BME280;16357;52.188;7.838;2023-08-07T10:26:07;100565.66;;;17.72;66.01
29371;BME280;16357;52.188;7.838;2023-08-07T10:28:37;100537.09;;;17.90;64.76
29371;BME280;16357;52.188;7.838;2023-08-07T10:31:06;100573.81;;;18.06;63.14
29371;BME280;16357;52.188;7.838;2023-08-07T10:33:34;100577.59;;;18.18;61.12
29371;BME280;16357;52.188;7.838;2023-08-07T10:36:08;100568.81;;;18.23;61.45
29371;BME280;16357;52.188;7.838;2023-08-07T10:38:35;100576.34;;;18.20;59.91
29371;BME280;16357;52.188;7.838;2023-08-07T10:41:09;100565.28;;;18.15;59.78
29371;BME280;16357;52.188;7.838;2023-08-07T10:43:40;100589.91;;;18.14;61.63
29371;BME280;16357;52.188;7.838;2023-08-07T10:46:12;100579.91;;;18.14;61.58
29371;BME280;16357;52.188;7.838;2023-08-07T10:48:39;100580.94;;;18.20;61.50
29371;BME280;16357;52.188;7.838;2023-08-07T10:51:07;100588.88;;;18.28;61.56
29371;BME280;16357;52.188;7.838;2023-08-07T10:56:03;100570.63;;;18.55;59.97
29371;BME280;16357;52.188;7.838;2023-08-07T10:58:31;100569.94;;;18.67;59.57
29371;BME280;16357;52.188;7.838;2023-08-07T11:03:48;100575.94;;;18.95;59.39
29371;BME280;16357;52.188;7.838;2023-08-07T11:06:16;100570.88;;;19.05;59.23
29371;BME280;16357;52.188;7.838;2023-08-07T11:08:43;100572.09;;;19.16;58.28
29371;BME280;16357;52.188;7.838;2023-08-07T11:11:09;100562.84;;;19.24;56.87
29371;BME280;16357;52.188;7.838;2023-08-07T11:13:36;100577.44;;;19.29;56.92
29371;BME280;16357;52.188;7.838;2023-08-07T11:16:03;100576.19;;;19.32;56.00
29371;BME280;16357;52.188;7.838;2023-08-07T11:18:30;100561.94;;;19.37;55.74
29371;BME280;16357;52.188;7.838;2023-08-07T11:20:57;100572.38;;;19.40;55.63
29371;BME280;16357;52.188;7.838;2023-08-07T11:23:24;100575.06;;;19.46;55.79
29371;BME280;16357;52.188;7.838;2023-08-07T11:25:52;100584.84;;;19.54;55.11
29371;BME280;16357;52.188;7.838;2023-08-07T11:28:19;100564.47;;;19.63;54.27
29371;BME280;16357;52.188;7.838;2023-08-07T11:30:51;100570.69;;;19.77;54.11
29371;BME280;16357;52.188;7.838;2023-08-07T11:33:18;100562.03;;;19.87;53.12
29371;BME280;16357;52.188;7.838;2023-08-07T11:35:48;100567.34;;;20.00;52.88
29371;BME280;16357;52.188;7.838;2023-08-07T11:38:39;100570.56;;;20.15;53.52
29371;BME280;16357;52.188;7.838;2023-08-07T11:41:07;100584.88;;;20.29;52.75
29371;BME280;16357;52.188;7.838;2023-08-07T11:43:34;100572.41;;;20.40;51.45
29371;BME280;16357;52.188;7.838;2023-08-07T11:46:03;100570.47;;;20.47;51.09
29371;BME280;16357;52.188;7.838;2023-08-07T11:48:32;100578.19;;;20.50;50.20
29371;BME280;16357;52.188;7.838;2023-08-07T11:51:00;100596.22;;;20.51;50.15
29371;BME280;16357;52.188;7.838;2023-08-07T11:53:29;100588.47;;;20.48;49.50
29371;BME280;16357;52.188;7.838;2023-08-07T11:55:57;100592.09;;;20.42;49.14
29371;BME280;16357;52.188;7.838;2023-08-07T11:58:26;100590.28;;;20.36;49.92
29371;BME280;16357;52.188;7.838;2023-08-07T12:00:53;100598.31;;;20.31;50.10
29371;BME280;16357;52.188;7.838;2023-08-07T12:03:34;100581.56;;;20.27;49.94
29371;BME280;16357;52.188;7.838;2023-08-07T12:06:04;100617.41;;;20.24;49.71
29371;BME280;16357;52.188;7.838;2023-08-07T12:08:32;100589.97;;;20.26;50.76
29371;BME280;16357;52.188;7.838;2023-08-07T12:11:01;100576.72;;;20.29;49.76
29371;BME280;16357;52.188;7.838;2023-08-07T12:13:29;100579.41;;;20.36;49.39
29371;BME280;16357;52.188;7.838;2023-08-07T12:15:56;100592.25;;;20.47;49.10
29371;BME280;16357;52.188;7.838;2023-08-07T12:18:25;100598.44;;;20.61;49.48
29371;BME280;16357;52.188;7.838;2023-08-07T12:20:59;100593.81;;;20.80;48.85
29371;BME280;16357;52.188;7.838;2023-08-07T12:23:26;100596.16;;;20.95;48.61
29371;BME280;16357;52.188;7.838;2023-08-07T12:25:53;100605.88;;;21.09;48.15
29371;BME280;16357;52.188;7.838;2023-08-07T12:28:19;100606.75;;;21.21;47.66
29371;BME280;16357;52.188;7.838;2023-08-07T12:30:46;100607.03;;;21.32;48.59
29371;BME280;16357;52.188;7.838;2023-08-07T12:33:14;100601.66;;;21.43;47.95
29371;BME280;16357;52.188;7.838;2023-08-07T12:35:41;100600.88;;;21.55;47.18
29371;BME280;16357;52.188;7.838;2023-08-07T12:38:08;100606.22;;;21.61;46.72
29371;BME280;16357;52.188;7.838;2023-08-07T12:40:36;100631.16;;;21.65;46.16
29371;BME280;16357;52.188;7.838;2023-08-07T12:43:04;100632.22;;;21.64;46.02
29371;BME280;16357;52.188;7.838;2023-08-07T12:45:31;100629.81;;;21.56;46.56
29371;BME280;16357;52.188;7.838;2023-08-07T12:48:01;100648.06;;;21.43;48.08
29371;BME280;16357;52.188;7.838;2023-08-07T12:50:28;100654.25;;;21.32;48.70
29371;BME280;16357;52.188;7.838;2023-08-07T12:52:55;100650.03;;;21.18;49.17
29371;BME280;16357;52.188;7.838;2023-08-07T12:55:22;100653.97;;;21.03;48.72
29371;BME280;16357;52.188;7.838;2023-08-07T12:57:49;100654.97;;;20.91;48.92
29371;BME280;16357;52.188;7.838;2023-08-07T13:00:16;100650.03;;;20.81;49.10